Lykes Challenger — ZCDJ3 — position and weather

sailwx.info

Track history (hours):
 
Tides and Currents Weather Stations Pressure Air Temp Water Temp Dewpoint Dewpoint Depression Visibility Wind Speed Wind Dir Waves Ship Positions

Lykes Challenger

Last reported at 2013-Nov-29 11:27 UTC. Time now 2014-Sep-17 01:36 UTC.
Position N 38°39' E 009°39'.
Warning: this ship's position is months out of date.

Length 269 m; draft 7.8 m.

Type: Ship (hazmat cat A). MMSI: 310420000.

Date/timePositionNaut miles runAvg speedWind from/ knotsBaromVisibWave heightAir tempDewpointWater temp
2013-Nov-29 11:27N 38°39' E 009°39'1314.2
2013-Nov-29 10:33N 38°49' E 009°28'1414.2
2013-Nov-29 09:33N 38°59' E 009°16'1312.8
2013-Nov-29 08:33N 39°10' E 009°06'4 3.7
2013-Nov-29 07:33N 39°13' E 009°04'0 0.0
2013-Nov-29 06:33N 39°13' E 009°04'0 0.0
2013-Nov-29 05:33N 39°13' E 009°04'0 0.0
2013-Nov-29 04:33N 39°13' E 009°04'0 0.0
2013-Nov-29 03:33N 39°13' E 009°04'0 0.0
2013-Nov-29 02:33N 39°13' E 009°04'0 0.0
2013-Nov-29 01:33N 39°13' E 009°04'0 0.0
2013-Nov-29 00:33N 39°13' E 009°04'0 0.0
2013-Nov-28 23:33N 39°13' E 009°04'0 0.0
2013-Nov-28 22:33N 39°13' E 009°04'0 0.0
2013-Nov-28 21:33N 39°13' E 009°04'0 0.0
2013-Nov-28 20:33N 39°13' E 009°04'0 0.0
2013-Nov-28 19:33N 39°13' E 009°04'0 0.0
2013-Nov-28 18:33N 39°13' E 009°04'0 0.0
2013-Nov-28 17:33N 39°13' E 009°04'0 0.0
2013-Nov-28 16:33N 39°13' E 009°04'0 0.0
2013-Nov-28 15:33N 39°13' E 009°04'0 0.0
2013-Nov-28 14:33N 39°13' E 009°04'0 0.0
2013-Nov-28 13:33N 39°13' E 009°04'0 0.0
2013-Nov-28 12:33N 39°13' E 009°04'0 0.0
2013-Nov-28 11:33N 39°13' E 009°04'0 0.0
2013-Nov-28 10:33N 39°13' E 009°04'0 0.0
2013-Nov-28 09:33N 39°13' E 009°04'0 0.0
2013-Nov-28 08:33N 39°13' E 009°04'0 0.0
2013-Nov-28 07:33N 39°13' E 009°04'0 0.0
2013-Nov-28 06:33N 39°13' E 009°04'0 0.0
2013-Nov-28 05:33N 39°13' E 009°04'0 0.0
2013-Nov-28 04:33N 39°13' E 009°04'0 0.0
2013-Nov-28 03:33N 39°13' E 009°04'0 0.0
2013-Nov-28 02:33N 39°13' E 009°04'0 0.0
2013-Nov-28 01:33N 39°13' E 009°04'0 0.0
2013-Nov-28 00:33N 39°13' E 009°04'0 0.0
2013-Nov-27 23:33N 39°13' E 009°04'0 0.0
2013-Nov-27 22:33N 39°13' E 009°04'0 0.0
2013-Nov-27 21:33N 39°13' E 009°04'0 0.0
2013-Nov-27 20:33N 39°13' E 009°04'0 0.0
2013-Nov-27 19:33N 39°13' E 009°04'2 1.6
2013-Nov-27 18:33N 39°12' E 009°05'6 5.8
2013-Nov-27 17:33N 39°06' E 009°07'1111.4
2013-Nov-27 16:33N 38°55' E 009°06'1312.8
2013-Nov-27 15:33N 38°45' E 008°56'1413.5
2013-Nov-27 14:33N 38°40' E 008°39'  
2013-Nov-23 00:31N 36°27' W 022°00'1514.1
2013-Nov-22 23:27N 36°28' W 022°19'3113.9
2013-Nov-22 21:13N 36°31' W 022°57'1113.9
2013-Nov-22 20:26N 36°31' W 023°11'1214.0
2013-Nov-22 19:33N 36°32' W 023°26'1413.9
2013-Nov-22 18:34N 36°33' W 023°43'1413.8
2013-Nov-22 17:33N 36°35' W 024°00'1414.2
2013-Nov-22 16:34N 36°36' W 024°18'1414.3
2013-Nov-22 15:33N 36°38' W 024°36'1414.1
2013-Nov-22 14:33N 36°39' W 024°53'1413.9
2013-Nov-22 13:33N 36°40' W 025°10'1413.8
2013-Nov-22 12:34N 36°41' W 025°27'1413.8
2013-Nov-22 11:33N 36°43' W 025°45'1414.1
2013-Nov-22 10:33N 36°44' W 026°02'1414.0
2013-Nov-22 09:33N 36°45' W 026°19'1414.4
2013-Nov-22 08:34N 36°47' W 026°37'1414.1
2013-Nov-22 07:34N 36°48' W 026°55'1414.0
2013-Nov-22 06:33N 36°49' W 027°12'1414.3
2013-Nov-22 05:33N 36°50' W 027°30'1514.0
2013-Nov-22 04:29N 36°51' W 027°49'1314.1
2013-Nov-22 03:33N 36°53' W 028°05'1414.4
2013-Nov-22 02:33N 36°54' W 028°23'1414.4
2013-Nov-22 01:33N 36°55' W 028°41'1414.2
2013-Nov-22 00:33N 36°56' W 028°59'1414.3
2013-Nov-21 23:33N 36°57' W 029°17'1414.0
2013-Nov-21 22:33N 36°58' W 029°34'1414.0
2013-Nov-21 21:33N 36°60' W 029°52'1514.3
2013-Nov-21 20:30N 37°02' W 030°10'1614.6
2013-Nov-21 19:27N 37°04' W 030°29'1314.5
2013-Nov-21 18:33N 37°05' W 030°46'1614.3
2013-Nov-21 17:28N 37°06' W 031°05'1213.7
2013-Nov-21 16:33N 37°07' W 031°21'1413.9
2013-Nov-21 15:32N 37°08' W 031°39'1514.0
2013-Nov-21 14:27N 37°09' W 031°57'  
Track history (hours):
 
Tides and Currents Weather Stations Pressure Air Temp Water Temp Dewpoint Dewpoint Depression Visibility Wind Speed Wind Dir Waves Ship Positions

Lykes Challenger

Last reported at 2013-Nov-29 11:27 UTC. Time now 2014-Sep-17 01:36 UTC.
Position N 38°39' E 009°39'.
Warning: this ship's position is months out of date.

Length 269 m; draft 7.8 m.

Type: Ship (hazmat cat A). MMSI: 310420000.

Date/timePositionNaut miles runAvg speedWind from/ knotsBaromVisibWave heightAir tempDewpointWater temp
2013-Nov-29 11:27N 38°39' E 009°39'1314.2
2013-Nov-29 10:33N 38°49' E 009°28'1414.2
2013-Nov-29 09:33N 38°59' E 009°16'1312.8
2013-Nov-29 08:33N 39°10' E 009°06'4 3.7
2013-Nov-29 07:33N 39°13' E 009°04'0 0.0
2013-Nov-29 06:33N 39°13' E 009°04'0 0.0
2013-Nov-29 05:33N 39°13' E 009°04'0 0.0
2013-Nov-29 04:33N 39°13' E 009°04'0 0.0
2013-Nov-29 03:33N 39°13' E 009°04'0 0.0
2013-Nov-29 02:33N 39°13' E 009°04'0 0.0
2013-Nov-29 01:33N 39°13' E 009°04'0 0.0
2013-Nov-29 00:33N 39°13' E 009°04'0 0.0
2013-Nov-28 23:33N 39°13' E 009°04'0 0.0
2013-Nov-28 22:33N 39°13' E 009°04'0 0.0
2013-Nov-28 21:33N 39°13' E 009°04'0 0.0
2013-Nov-28 20:33N 39°13' E 009°04'0 0.0
2013-Nov-28 19:33N 39°13' E 009°04'0 0.0
2013-Nov-28 18:33N 39°13' E 009°04'0 0.0
2013-Nov-28 17:33N 39°13' E 009°04'0 0.0
2013-Nov-28 16:33N 39°13' E 009°04'0 0.0
2013-Nov-28 15:33N 39°13' E 009°04'0 0.0
2013-Nov-28 14:33N 39°13' E 009°04'0 0.0
2013-Nov-28 13:33N 39°13' E 009°04'0 0.0
2013-Nov-28 12:33N 39°13' E 009°04'0 0.0
2013-Nov-28 11:33N 39°13' E 009°04'0 0.0
2013-Nov-28 10:33N 39°13' E 009°04'0 0.0
2013-Nov-28 09:33N 39°13' E 009°04'0 0.0
2013-Nov-28 08:33N 39°13' E 009°04'0 0.0
2013-Nov-28 07:33N 39°13' E 009°04'0 0.0
2013-Nov-28 06:33N 39°13' E 009°04'0 0.0
2013-Nov-28 05:33N 39°13' E 009°04'0 0.0
2013-Nov-28 04:33N 39°13' E 009°04'0 0.0
2013-Nov-28 03:33N 39°13' E 009°04'0 0.0
2013-Nov-28 02:33N 39°13' E 009°04'0 0.0
2013-Nov-28 01:33N 39°13' E 009°04'0 0.0
2013-Nov-28 00:33N 39°13' E 009°04'0 0.0
2013-Nov-27 23:33N 39°13' E 009°04'0 0.0
2013-Nov-27 22:33N 39°13' E 009°04'0 0.0
2013-Nov-27 21:33N 39°13' E 009°04'0 0.0
2013-Nov-27 20:33N 39°13' E 009°04'0 0.0
2013-Nov-27 19:33N 39°13' E 009°04'2 1.6
2013-Nov-27 18:33N 39°12' E 009°05'6 5.8
2013-Nov-27 17:33N 39°06' E 009°07'1111.4
2013-Nov-27 16:33N 38°55' E 009°06'1312.8
2013-Nov-27 15:33N 38°45' E 008°56'1413.5
2013-Nov-27 14:33N 38°40' E 008°39'  
2013-Nov-23 00:31N 36°27' W 022°00'1514.1
2013-Nov-22 23:27N 36°28' W 022°19'3113.9
2013-Nov-22 21:13N 36°31' W 022°57'1113.9
2013-Nov-22 20:26N 36°31' W 023°11'1214.0
2013-Nov-22 19:33N 36°32' W 023°26'1413.9
2013-Nov-22 18:34N 36°33' W 023°43'1413.8
2013-Nov-22 17:33N 36°35' W 024°00'1414.2
2013-Nov-22 16:34N 36°36' W 024°18'1414.3
2013-Nov-22 15:33N 36°38' W 024°36'1414.1
2013-Nov-22 14:33N 36°39' W 024°53'1413.9
2013-Nov-22 13:33N 36°40' W 025°10'1413.8
2013-Nov-22 12:34N 36°41' W 025°27'1413.8
2013-Nov-22 11:33N 36°43' W 025°45'1414.1
2013-Nov-22 10:33N 36°44' W 026°02'1414.0
2013-Nov-22 09:33N 36°45' W 026°19'1414.4
2013-Nov-22 08:34N 36°47' W 026°37'1414.1
2013-Nov-22 07:34N 36°48' W 026°55'1414.0
2013-Nov-22 06:33N 36°49' W 027°12'1414.3
2013-Nov-22 05:33N 36°50' W 027°30'1514.0
2013-Nov-22 04:29N 36°51' W 027°49'1314.1
2013-Nov-22 03:33N 36°53' W 028°05'1414.4
2013-Nov-22 02:33N 36°54' W 028°23'1414.4
2013-Nov-22 01:33N 36°55' W 028°41'1414.2
2013-Nov-22 00:33N 36°56' W 028°59'1414.3
2013-Nov-21 23:33N 36°57' W 029°17'1414.0
2013-Nov-21 22:33N 36°58' W 029°34'1414.0
2013-Nov-21 21:33N 36°60' W 029°52'1514.3
2013-Nov-21 20:30N 37°02' W 030°10'1614.6
2013-Nov-21 19:27N 37°04' W 030°29'1314.5
2013-Nov-21 18:33N 37°05' W 030°46'1614.3
2013-Nov-21 17:28N 37°06' W 031°05'1213.7
2013-Nov-21 16:33N 37°07' W 031°21'1413.9
2013-Nov-21 15:32N 37°08' W 031°39'1514.0
2013-Nov-21 14:27N 37°09' W 031°57'  

Dump ship's entire track history